Time;durP1;ratioP1;P1;durP2;ratioP2;P2;SDS_P1;SDS_P2;PMS_P1;PMS_P2;Temp;Humidity;BMP_temperature;BMP_pressure;BME280_temperature;BME280_humidity;BME280_pressure;Samples;Min_cycle;Max_cycle;Signal;HPM_P1;HPM_P2
2022/01/12 00:00:39;;;;;;;41.33;12.20;;;3.70;99.90;;;;;;4241446;27;20054;-83
2022/01/12 00:02:40;;;;;;;40.00;13.85;;;3.50;99.90;;;;;;4232339;28;20055;-83
2022/01/12 00:04:41;;;;;;;47.20;12.05;;;3.60;99.90;;;;;;4249524;27;20043;-83
2022/01/12 00:06:42;;;;;;;43.95;12.73;;;4.50;99.90;;;;;;4249894;27;20039;-83
2022/01/12 00:08:43;;;;;;;36.53;10.65;;;5.00;99.90;;;;;;4232187;28;20039;-83
2022/01/12 00:10:44;;;;;;;45.75;11.75;;;4.90;99.90;;;;;;4214740;28;20051;-83
2022/01/12 00:12:45;;;;;;;40.40;11.50;;;4.60;99.90;;;;;;4250628;27;20555;-83
2022/01/12 00:14:45;;;;;;;46.13;12.10;;;4.20;99.90;;;;;;4249831;27;20046;-83
2022/01/12 00:16:48;;;;;;;43.78;12.57;;;4.50;99.90;;;;;;4231403;28;20158;-83
2022/01/12 00:18:49;;;;;;;31.17;10.80;;;3.60;99.90;;;;;;4234279;27;20118;-82
2022/01/12 00:20:51;;;;;;;47.80;12.95;;;4.70;99.90;;;;;;4247840;27;20104;-83
2022/01/12 00:22:52;;;;;;;41.08;12.57;;;5.10;99.90;;;;;;4231291;28;20511;-83
2022/01/12 00:33:55;;;;;;;48.10;11.65;;;3.60;99.90;;;;;;4266837;27;20500;-83
2022/01/12 00:36:04;;;;;;;50.13;11.82;;;3.60;99.90;;;;;;4212909;27;20430;-83
2022/01/12 00:38:09;;;;;;;40.72;12.38;;;3.60;99.90;;;;;;4212710;28;20199;-83
2022/01/12 00:40:10;;;;;;;46.90;12.60;;;3.60;99.90;;;;;;4211338;28;20145;-84
2022/01/12 00:42:13;;;;;;;42.90;11.85;;;3.60;99.90;;;;;;4210953;28;20088;-84
2022/01/12 00:44:23;;;;;;;52.78;12.60;;;3.70;99.90;;;;;;4195101;28;20051;-84
2022/01/12 00:46:30;;;;;;;51.30;14.15;;;5.10;99.90;;;;;;4210920;28;20084;-83
2022/01/12 00:48:31;;;;;;;50.63;11.98;;;5.30;99.90;;;;;;4212186;28;20138;-84
2022/01/12 00:50:31;;;;;;;40.60;13.10;;;2.80;99.90;;;;;;4211412;28;20527;-84
2022/01/12 00:52:33;;;;;;;51.38;12.15;;;4.40;99.90;;;;;;4193982;28;20481;-83
2022/01/12 00:54:35;;;;;;;51.47;13.50;;;4.70;99.90;;;;;;4196518;28;20057;-83
2022/01/12 00:56:36;;;;;;;52.85;12.00;;;3.90;99.90;;;;;;4195087;28;20110;-83
2022/01/12 00:58:38;;;;;;;54.25;13.43;;;4.70;99.90;;;;;;4212017;28;20056;-84
2022/01/12 01:00:39;;;;;;;50.47;13.32;;;5.20;99.90;;;;;;4193792;28;20519;-83
2022/01/12 01:02:39;;;;;;;54.20;12.23;;;5.00;99.90;;;;;;4210902;28;20044;-83
2022/01/12 01:04:40;;;;;;;51.83;13.30;;;5.30;99.90;;;;;;4194056;28;20076;-83
2022/01/12 01:06:41;;;;;;;52.88;12.60;;;3.90;99.90;;;;;;4208899;28;20470;-84
2022/01/12 01:08:43;;;;;;;51.25;12.13;;;4.50;99.90;;;;;;4194177;28;20076;-84
2022/01/12 01:10:46;;;;;;;62.03;11.65;;;5.20;99.90;;;;;;4198869;28;20044;-83
2022/01/12 01:12:47;;;;;;;47.40;12.68;;;2.70;99.90;;;;;;4208220;28;20041;-83
2022/01/12 01:15:04;;;;;;;72.78;13.13;;;3.90;99.90;;;;;;4194056;28;20489;-83
2022/01/12 01:25:26;;;;;;;49.35;12.38;;;5.20;99.90;;;;;;4193392;28;20055;-83
2022/01/12 01:26:26;;;;;;;76.85;12.70;;;4.60;99.90;;;;;;4194031;28;20141;-83
2022/01/12 01:28:27;;;;;;;52.40;10.90;;;3.90;99.90;;;;;;4193437;28;20132;-84
2022/01/12 01:30:28;;;;;;;61.72;12.02;;;3.30;99.90;;;;;;4195703;28;20087;-83
2022/01/12 01:32:29;;;;;;;84.40;13.00;;;3.90;99.90;;;;;;4194304;28;20049;-84
2022/01/12 01:34:32;;;;;;;57.40;11.63;;;3.80;99.90;;;;;;4210771;28;20052;-84
2022/01/12 01:36:35;;;;;;;85.43;12.07;;;3.90;99.90;;;;;;4193795;28;20390;-84
2022/01/12 01:38:35;;;;;;;87.03;14.27;;;3.90;99.90;;;;;;4211122;28;20044;-83
2022/01/12 01:40:38;;;;;;;53.85;11.20;;;3.80;99.90;;;;;;4210444;28;20080;-83
2022/01/12 01:42:56;;;;;;;57.22;11.88;;;3.90;99.90;;;;;;4212091;28;20094;-84
2022/01/12 01:54:15;;;;;;;49.17;12.23;;;3.90;99.90;;;;;;4183229;28;20587;-84
2022/01/12 01:56:19;;;;;;;54.00;12.50;;;3.90;99.90;;;;;;4198748;28;20036;-83
2022/01/12 01:58:19;;;;;;;48.70;11.57;;;4.40;99.90;;;;;;4200759;28;20056;-83
2022/01/12 02:00:24;;;;;;;55.47;11.50;;;3.90;99.90;;;;;;4199284;28;20052;-83
2022/01/12 02:02:24;;;;;;;53.05;11.77;;;3.90;99.90;;;;;;4199278;28;20045;-83
2022/01/12 02:04:25;;;;;;;57.75;12.82;;;3.90;99.90;;;;;;4183018;28;20078;-83
2022/01/12 02:06:27;;;;;;;48.40;10.55;;;3.90;99.90;;;;;;4181779;28;20103;-83
2022/01/12 02:08:29;;;;;;;61.10;12.65;;;4.70;99.90;;;;;;4182946;28;20053;-83
2022/01/12 02:10:29;;;;;;;49.67;11.68;;;3.90;99.90;;;;;;4199465;28;20048;-83
2022/01/12 02:12:31;;;;;;;57.40;10.48;;;3.90;99.90;;;;;;4198658;28;20110;-83
2022/01/12 02:14:34;;;;;;;42.78;11.25;;;4.40;99.90;;;;;;4199206;28;20051;-83
2022/01/12 02:16:49;;;;;;;41.13;10.73;;;3.90;99.90;;;;;;4186583;28;20104;-83
2022/01/12 02:19:16;;;;;;;34.25;11.10;;;3.90;99.90;;;;;;4169811;28;20045;-83
2022/01/12 02:35:36;;;;;;;34.92;9.57;;;5.50;99.90;;;;;;4199967;28;20552;-84
2022/01/12 02:40:06;;;;;;;36.72;10.77;;;4.00;99.90;;;;;;4200346;28;20045;-84
2022/01/12 02:42:07;;;;;;;37.25;9.18;;;4.10;99.90;;;;;;4200097;28;20560;-84
2022/01/12 02:51:10;;;;;;;39.20;8.73;;;4.10;99.90;;;;;;4198912;28;20137;-83
2022/01/12 02:55:33;;;;;;;28.33;8.07;;;4.10;99.90;;;;;;4191365;28;20084;-83
2022/01/12 02:57:34;;;;;;;28.95;8.82;;;4.50;99.90;;;;;;4198412;28;20045;-83
2022/01/12 02:59:36;;;;;;;34.58;8.65;;;5.40;99.90;;;;;;4181342;28;20147;-83
2022/01/12 03:02:20;;;;;;;30.77;8.85;;;4.00;99.90;;;;;;4197735;28;20092;-83
2022/01/12 03:04:09;;;;;;;25.50;7.75;;;4.80;99.90;;;;;;4195784;28;20056;-83
2022/01/12 03:06:16;;;;;;;32.17;9.57;;;4.00;99.90;;;;;;4198113;28;20597;-83
2022/01/12 03:08:20;;;;;;;31.23;8.95;;;3.90;99.90;;;;;;4183836;28;20053;-83
2022/01/12 03:10:22;;;;;;;30.27;8.90;;;3.90;99.90;;;;;;4181325;28;20049;-83
2022/01/12 03:12:22;;;;;;;26.83;8.30;;;3.90;99.90;;;;;;4182181;28;20106;-83
2022/01/12 03:14:23;;;;;;;24.73;8.45;;;3.80;99.90;;;;;;4198289;28;20528;-83
2022/01/12 03:16:28;;;;;;;25.40;7.90;;;3.80;99.90;;;;;;4198524;28;20041;-83
2022/01/12 03:18:29;;;;;;;34.67;9.00;;;3.80;99.90;;;;;;4198896;28;20048;-83
2022/01/12 03:20:29;;;;;;;22.27;7.53;;;3.80;99.90;;;;;;4199394;28;20479;-83
2022/01/12 03:22:30;;;;;;;30.17;7.53;;;3.80;99.90;;;;;;4199357;28;20128;-83
2022/01/12 03:24:31;;;;;;;26.92;7.85;;;4.40;99.90;;;;;;4199469;28;20048;-83
2022/01/12 03:26:34;;;;;;;31.58;9.23;;;;;;;;;;4198255;28;20516;-83
2022/01/12 03:28:35;;;;;;;25.00;8.35;;;;;;;;;;4198604;28;20421;-83
2022/01/12 03:30:48;;;;;;;28.80;8.07;;;;;;;;;;4198036;28;20048;-83
2022/01/12 03:33:03;;;;;;;30.63;9.43;;;;;;;;;;4198402;28;20507;-83
2022/01/12 03:35:12;;;;;;;24.55;7.22;;;;;;;;;;4196774;28;20131;-83
2022/01/12 03:39:33;;;;;;;29.83;7.88;;;3.60;99.90;;;;;;4199149;28;20044;-83
2022/01/12 03:41:36;;;;;;;34.53;9.40;;;3.50;99.90;;;;;;4181502;28;20049;-83
2022/01/12 03:43:38;;;;;;;31.25;8.95;;;3.50;99.90;;;;;;4199925;28;20537;-84
2022/01/12 03:45:39;;;;;;;29.67;8.38;;;3.40;99.90;;;;;;4199817;28;20045;-84
2022/01/12 03:47:39;;;;;;;31.90;7.75;;;3.40;99.90;;;;;;4181421;28;20414;-83
2022/01/12 03:49:41;;;;;;;36.08;9.00;;;3.50;99.90;;;;;;4199677;28;20047;-84
2022/01/12 03:51:42;;;;;;;29.58;8.07;;;3.40;99.90;;;;;;4212032;28;20078;-82
2022/01/12 03:53:43;;;;;;;34.45;8.35;;;3.50;99.90;;;;;;4195020;28;20049;-83
2022/01/12 03:55:44;;;;;;;34.65;8.15;;;3.50;99.90;;;;;;4196823;28;20041;-83
2022/01/12 03:57:44;;;;;;;30.38;8.88;;;3.50;99.90;;;;;;4194618;28;20068;-83
2022/01/12 03:59:45;;;;;;;31.40;7.47;;;3.40;99.90;;;;;;4183691;28;20053;-84
2022/01/12 04:01:46;;;;;;;29.00;8.30;;;3.40;99.90;;;;;;4176339;28;20045;-83
2022/01/12 04:03:57;;;;;;;27.92;8.07;;;3.40;99.90;;;;;;4177349;28;20057;-83
2022/01/12 04:08:23;;;;;;;27.33;6.82;;;3.40;99.90;;;;;;4187563;28;20097;-83
2022/01/12 04:10:24;;;;;;;28.25;8.38;;;4.20;99.90;;;;;;4197130;28;20538;-83
2022/01/12 04:12:26;;;;;;;23.50;7.25;;;3.40;99.90;;;;;;4180706;28;20079;-83
2022/01/12 04:14:28;;;;;;;29.48;7.82;;;3.40;99.90;;;;;;4198004;28;20135;-83
2022/01/12 04:16:31;;;;;;;26.92;8.40;;;3.40;99.90;;;;;;4196793;28;20058;-83
2022/01/12 04:18:32;;;;;;;27.05;8.52;;;3.40;99.90;;;;;;4181729;28;20529;-83
2022/01/12 04:20:33;;;;;;;28.52;9.15;;;4.50;99.90;;;;;;4196928;28;20045;-83
2022/01/12 04:24:53;;;;;;;25.10;7.28;;;3.40;99.90;;;;;;4197315;28;20048;-83
2022/01/12 04:26:54;;;;;;;24.25;7.40;;;4.20;99.90;;;;;;4196222;28;20052;-83
2022/01/12 04:28:56;;;;;;;22.00;6.93;;;3.80;99.90;;;;;;4195983;28;20082;-83
2022/01/12 04:30:57;;;;;;;32.72;8.43;;;3.40;99.90;;;;;;4196011;28;20048;-83
2022/01/12 04:32:58;;;;;;;25.15;7.38;;;3.30;99.90;;;;;;4197353;28;20512;-83
2022/01/12 04:35:01;;;;;;;23.23;7.22;;;3.40;99.90;;;;;;4197359;28;20045;-83
2022/01/12 04:37:02;;;;;;;26.25;7.32;;;3.30;99.90;;;;;;4195740;28;20122;-83
2022/01/12 04:39:04;;;;;;;34.15;8.52;;;3.30;99.90;;;;;;4189657;28;20048;-83
2022/01/12 04:41:08;;;;;;;24.23;7.28;;;4.10;99.90;;;;;;4190194;28;20388;-83
2022/01/12 04:43:10;;;;;;;24.27;8.20;;;3.20;99.90;;;;;;4195793;28;20530;-83
2022/01/12 04:45:18;;;;;;;23.20;7.40;;;4.20;99.90;;;;;;4186826;28;20044;-83
2022/01/12 04:47:39;;;;;;;27.40;7.07;;;3.20;99.90;;;;;;4180529;28;20474;-83
2022/01/12 04:51:47;;;;;;;27.40;7.78;;;3.20;99.90;;;;;;4197264;28;20059;-83
2022/01/12 04:53:48;;;;;;;21.95;6.88;;;3.90;99.90;;;;;;4196513;28;20049;-83
2022/01/12 04:55:50;;;;;;;28.63;7.40;;;3.10;99.90;;;;;;4196412;28;20120;-83
2022/01/12 04:57:50;;;;;;;24.48;7.60;;;3.10;99.90;;;;;;4179882;28;20045;-83
2022/01/12 05:00:05;;;;;;;27.02;8.13;;;3.20;99.90;;;;;;4164272;28;20105;-83
2022/01/12 05:07:08;;;;;;;24.02;6.68;;;3.50;99.90;;;;;;4197236;28;20048;-83
2022/01/12 05:13:31;;;;;;;21.42;6.60;;;2.90;99.90;;;;;;4188693;28;20045;-83
2022/01/12 05:15:35;;;;;;;19.45;5.50;;;2.80;99.90;;;;;;4180283;28;20052;-83
2022/01/12 05:17:36;;;;;;;25.48;7.35;;;2.80;99.90;;;;;;4180197;28;20041;-83
2022/01/12 05:19:40;;;;;;;21.52;5.90;;;2.80;99.90;;;;;;4181906;28;20500;-83
2022/01/12 05:21:41;;;;;;;20.13;6.75;;;2.70;99.90;;;;;;4183383;28;20045;-83
2022/01/12 05:23:43;;;;;;;24.77;8.10;;;3.20;99.90;;;;;;4167451;28;20481;-83
2022/01/12 05:25:46;;;;;;;19.50;6.53;;;2.70;99.90;;;;;;4167490;28;20045;-83
2022/01/12 05:27:47;;;;;;;22.20;5.97;;;2.60;99.90;;;;;;4192842;28;20049;-83
2022/01/12 05:29:47;;;;;;;21.75;6.00;;;2.60;99.90;;;;;;4194721;28;20068;-82
2022/01/12 05:31:49;;;;;;;17.63;5.82;;;2.60;99.90;;;;;;4191967;28;20363;-82
2022/01/12 05:33:50;;;;;;;19.88;5.85;;;2.50;99.90;;;;;;4187015;28;20060;-83
2022/01/12 05:35:55;;;;;;;21.40;5.82;;;3.30;99.90;;;;;;4182530;28;20053;-83
2022/01/12 05:37:57;;;;;;;19.23;5.10;;;2.50;99.90;;;;;;4197436;28;20051;-83
2022/01/12 05:40:00;;;;;;;23.33;5.75;;;2.60;99.90;;;;;;4184695;28;20497;-84
2022/01/12 05:42:00;;;;;;;18.45;5.00;;;4.00;99.90;;;;;;4182590;28;20048;-83
2022/01/12 05:44:05;;;;;;;18.48;5.10;;;2.50;99.90;;;;;;4178605;28;20052;-83
2022/01/12 05:46:12;;;;;;;16.95;5.55;;;2.50;99.90;;;;;;4198017;28;20091;-83
2022/01/12 05:50:14;;;;;;;15.50;5.28;;;3.00;99.90;;;;;;4199280;28;20386;-84
2022/01/12 05:52:19;;;;;;;18.90;6.05;;;3.30;99.90;;;;;;4198106;28;20037;-83
2022/01/12 05:54:20;;;;;;;20.35;5.00;;;2.50;99.90;;;;;;4194041;28;20060;-83
2022/01/12 05:56:21;;;;;;;21.05;4.78;;;2.50;99.90;;;;;;4197027;28;20049;-84
2022/01/12 05:58:21;;;;;;;18.90;5.00;;;2.50;99.90;;;;;;4182731;28;20041;-83
2022/01/12 06:00:25;;;;;;;20.88;4.32;;;2.50;99.90;;;;;;4166459;28;20099;-84
2022/01/12 06:02:26;;;;;;;26.08;4.82;;;3.20;99.90;;;;;;4168300;28;20045;-84
2022/01/12 06:04:28;;;;;;;21.48;4.43;;;2.40;99.90;;;;;;4198431;28;20063;-87
2022/01/12 06:06:28;;;;;;;25.45;4.78;;;2.40;99.90;;;;;;4201224;28;20105;-83
2022/01/12 06:08:29;;;;;;;25.30;4.95;;;2.40;99.90;;;;;;4198497;28;20143;-84
2022/01/12 06:10:30;;;;;;;29.63;4.47;;;2.40;99.90;;;;;;4201703;28;20118;-84
2022/01/12 06:12:31;;;;;;;16.60;4.38;;;2.30;99.90;;;;;;4200850;28;20052;-84
2022/01/12 06:14:31;;;;;;;17.77;3.90;;;2.30;99.90;;;;;;4198326;28;20404;-84
2022/01/12 06:16:32;;;;;;;17.15;4.57;;;1.80;99.90;;;;;;4183311;28;20041;-84
2022/01/12 06:18:33;;;;;;;9.60;3.83;;;3.10;99.90;;;;;;4183957;28;20056;-85
2022/01/12 06:20:34;;;;;;;16.85;4.30;;;2.30;99.90;;;;;;4179979;28;20079;-83
2022/01/12 06:22:36;;;;;;;22.02;3.97;;;3.30;99.90;;;;;;4189005;28;20382;-83
2022/01/12 06:24:37;;;;;;;11.13;3.92;;;2.30;99.90;;;;;;4182589;28;20051;-83
2022/01/12 06:26:41;;;;;;;31.77;4.65;;;3.60;99.90;;;;;;4195382;28;20134;-83
2022/01/12 06:28:53;;;;;;;50.50;6.07;;;2.30;99.90;;;;;;4166449;28;20174;-83
2022/01/12 06:31:10;;;;;;;66.13;5.95;;;2.30;99.90;;;;;;4186912;28;20127;-83
2022/01/12 06:33:11;;;;;;;49.85;6.13;;;3.00;99.90;;;;;;4200270;28;20048;-83
2022/01/12 06:35:11;;;;;;;60.40;5.30;;;3.80;99.90;;;;;;4200431;28;20087;-83
2022/01/12 06:37:12;;;;;;;148.98;8.02;;;2.40;99.90;;;;;;4194076;28;20098;-83
2022/01/12 06:39:17;;;;;;;102.20;5.45;;;2.20;99.90;;;;;;4182964;28;20084;-83
2022/01/12 06:41:20;;;;;;;89.80;5.63;;;2.20;99.90;;;;;;4182263;28;20053;-83
2022/01/12 06:43:20;;;;;;;60.67;4.45;;;3.50;99.90;;;;;;4174439;28;20052;-83
2022/01/12 06:45:22;;;;;;;62.03;5.00;;;3.20;99.90;;;;;;4198957;28;20544;-83
2022/01/12 06:47:23;;;;;;;40.70;3.88;;;2.20;99.90;;;;;;4182079;28;20049;-83
2022/01/12 06:49:25;;;;;;;27.17;3.92;;;2.20;99.90;;;;;;4200022;28;20052;-83
2022/01/12 06:51:27;;;;;;;24.08;3.70;;;2.20;99.90;;;;;;4194342;28;20045;-83
2022/01/12 06:53:28;;;;;;;24.45;2.97;;;2.20;99.90;;;;;;4182434;28;20085;-83
2022/01/12 06:55:28;;;;;;;18.40;3.75;;;2.20;99.90;;;;;;4191448;28;20045;-83
2022/01/12 06:57:31;;;;;;;25.52;4.03;;;2.20;99.90;;;;;;4199666;28;20063;-83
2022/01/12 06:59:31;;;;;;;42.45;4.85;;;2.20;99.90;;;;;;4182527;28;20041;-83
2022/01/12 07:01:33;;;;;;;35.75;3.88;;;2.20;99.90;;;;;;4199109;28;20059;-83
2022/01/12 07:03:34;;;;;;;32.25;3.20;;;2.20;99.90;;;;;;4199231;28;20040;-83
2022/01/12 07:05:35;;;;;;;26.02;4.10;;;2.20;99.90;;;;;;4200420;28;20170;-83
2022/01/12 07:07:37;;;;;;;33.28;3.90;;;2.20;99.90;;;;;;4190273;28;20052;-83
2022/01/12 07:09:37;;;;;;;21.77;3.63;;;2.20;99.90;;;;;;4197502;28;20044;-83
2022/01/12 07:11:38;;;;;;;20.95;3.78;;;2.30;99.90;;;;;;4200274;28;20059;-84
2022/01/12 07:13:39;;;;;;;39.03;4.05;;;2.20;99.90;;;;;;4200391;28;20071;-83
2022/01/12 07:15:42;;;;;;;45.22;4.10;;;3.10;99.90;;;;;;4198587;28;20041;-83
2022/01/12 07:17:44;;;;;;;17.35;4.13;;;2.20;99.90;;;;;;4197090;28;20049;-83
2022/01/12 07:19:45;;;;;;;40.15;5.50;;;2.50;99.90;;;;;;4199842;28;20093;-83
2022/01/12 07:21:46;;;;;;;41.30;4.88;;;2.00;99.90;;;;;;4199256;28;20048;-83
2022/01/12 07:23:48;;;;;;;18.27;4.00;;;3.10;99.90;;;;;;4200124;28;20438;-83
2022/01/12 07:25:50;;;;;;;81.38;7.47;;;2.00;99.90;;;;;;4198381;28;20059;-83
2022/01/12 07:27:51;;;;;;;14.07;3.53;;;1.90;99.90;;;;;;4199952;28;20044;-83
2022/01/12 07:29:51;;;;;;;34.70;4.35;;;1.90;99.90;;;;;;4200707;28;20036;-84
2022/01/12 07:31:53;;;;;;;23.58;3.63;;;3.20;99.90;;;;;;4181915;28;20064;-85
2022/01/12 07:33:56;;;;;;;33.58;4.45;;;1.80;99.90;;;;;;4198468;28;20048;-84
2022/01/12 07:35:57;;;;;;;31.23;4.13;;;1.80;99.90;;;;;;4197788;28;20055;-83
2022/01/12 07:37:58;;;;;;;18.23;3.22;;;1.80;99.90;;;;;;4198038;28;20044;-83
2022/01/12 07:40:00;;;;;;;23.00;3.78;;;1.80;99.90;;;;;;4199037;28;20165;-83
2022/01/12 07:42:03;;;;;;;14.52;3.05;;;2.30;99.90;;;;;;4182203;28;20048;-83
2022/01/12 07:44:05;;;;;;;34.58;3.75;;;1.70;99.90;;;;;;4184134;28;20091;-84
2022/01/12 07:46:05;;;;;;;25.25;3.65;;;1.70;99.90;;;;;;4183149;28;20181;-84
2022/01/12 07:48:07;;;;;;;31.52;4.38;;;2.60;99.90;;;;;;4181641;28;20163;-83
2022/01/12 07:50:09;;;;;;;21.88;3.45;;;1.70;99.90;;;;;;4181911;28;20529;-84
2022/01/12 07:52:09;;;;;;;17.92;3.92;;;2.40;99.90;;;;;;4180994;28;20055;-83
2022/01/12 07:54:12;;;;;;;16.27;3.35;;;1.60;99.90;;;;;;4181715;28;20053;-83
2022/01/12 07:56:15;;;;;;;30.75;4.22;;;1.60;99.90;;;;;;4196628;28;20047;-83
2022/01/12 07:58:15;;;;;;;23.20;3.88;;;1.70;99.90;;;;;;4182641;28;20052;-85
2022/01/12 08:00:20;;;;;;;17.65;2.97;;;1.60;99.90;;;;;;4177837;28;20040;-83
2022/01/12 08:02:23;;;;;;;23.67;3.25;;;2.30;99.90;;;;;;4173772;28;20409;-84
2022/01/12 08:04:24;;;;;;;16.33;2.83;;;1.50;99.90;;;;;;4183109;28;20041;-84
2022/01/12 08:06:24;;;;;;;22.98;3.53;;;1.60;99.90;;;;;;4183198;28;20047;-84
2022/01/12 08:08:25;;;;;;;15.70;3.58;;;1.50;99.90;;;;;;4165035;28;20045;-83
2022/01/12 08:10:26;;;;;;;12.52;4.10;;;1.50;99.90;;;;;;4181751;28;20525;-86
2022/01/12 08:12:27;;;;;;;13.38;3.33;;;1.40;99.90;;;;;;4164286;28;20049;-83
2022/01/12 08:14:33;;;;;;;8.20;3.88;;;1.50;99.90;;;;;;4198284;28;20051;-84
2022/01/12 08:16:34;;;;;;;11.60;3.30;;;2.20;99.90;;;;;;4200613;28;20408;-83
2022/01/12 08:18:38;;;;;;;14.85;3.25;;;1.50;99.90;;;;;;4199464;28;20041;-86
2022/01/12 08:20:41;;;;;;;11.80;3.50;;;1.70;99.90;;;;;;4182195;28;20061;-84
2022/01/12 08:22:42;;;;;;;8.75;3.03;;;1.50;99.90;;;;;;4182773;28;20045;-83
2022/01/12 08:24:43;;;;;;;11.35;3.70;;;1.60;99.90;;;;;;4167720;28;20053;-83
2022/01/12 08:26:44;;;;;;;7.70;3.45;;;1.60;99.90;;;;;;4198705;28;20040;-83
2022/01/12 08:28:45;;;;;;;25.20;3.33;;;1.60;99.90;;;;;;4199931;28;20503;-83
2022/01/12 08:30:45;;;;;;;35.42;5.32;;;1.60;99.90;;;;;;4200118;28;20055;-83
2022/01/12 08:32:49;;;;;;;37.70;4.65;;;1.60;99.90;;;;;;4197882;28;20139;-83
2022/01/12 08:34:50;;;;;;;34.10;5.38;;;1.60;99.90;;;;;;4182123;28;20088;-83
2022/01/12 08:36:51;;;;;;;29.25;4.05;;;1.60;99.90;;;;;;4199804;28;20060;-83
2022/01/12 08:38:51;;;;;;;14.80;3.95;;;1.60;99.90;;;;;;4198976;28;20040;-83
2022/01/12 08:40:53;;;;;;;31.90;3.72;;;1.70;99.90;;;;;;4199048;28;20106;-83
2022/01/12 08:42:54;;;;;;;37.05;3.65;;;1.90;99.90;;;;;;4199598;28;20102;-83
2022/01/12 08:44:59;;;;;;;37.28;4.20;;;2.70;99.90;;;;;;4199169;28;20116;-83
2022/01/12 08:47:00;;;;;;;28.13;3.50;;;1.70;99.90;;;;;;4197974;28;20056;-84
2022/01/12 08:49:02;;;;;;;40.58;4.05;;;1.80;99.90;;;;;;4197209;28;20041;-86
2022/01/12 08:51:06;;;;;;;29.30;3.97;;;3.00;99.90;;;;;;4199056;28;20044;-86
2022/01/12 08:53:07;;;;;;;35.45;3.45;;;1.80;99.90;;;;;;4198362;28;20581;-83
2022/01/12 08:55:08;;;;;;;31.80;4.13;;;1.90;99.90;;;;;;4187518;28;20041;-83
2022/01/12 08:57:09;;;;;;;58.72;4.00;;;1.90;99.90;;;;;;4183299;28;20132;-84
2022/01/12 08:59:10;;;;;;;42.90;3.92;;;3.30;99.90;;;;;;4184593;28;20083;-85
2022/01/12 09:01:10;;;;;;;52.42;4.15;;;2.00;99.90;;;;;;4192129;28;20047;-83
2022/01/12 09:03:12;;;;;;;46.83;3.80;;;2.30;99.90;;;;;;4202247;28;20044;-83
2022/01/12 09:05:14;;;;;;;50.63;4.47;;;2.10;99.90;;;;;;4201862;28;20508;-84
2022/01/12 09:07:17;;;;;;;70.22;3.85;;;2.10;99.90;;;;;;4192901;28;20059;-83
2022/01/12 09:09:17;;;;;;;28.77;3.30;;;2.20;99.90;;;;;;4200734;28;20132;-84
2022/01/12 09:11:18;;;;;;;58.33;4.90;;;2.20;99.90;;;;;;4200621;28;20052;-85
2022/01/12 09:13:19;;;;;;;46.10;3.97;;;2.20;99.90;;;;;;4183757;28;20528;-83
2022/01/12 09:15:25;;;;;;;58.75;4.65;;;2.30;99.90;;;;;;4201366;28;20036;-86
2022/01/12 09:17:26;;;;;;;59.00;4.15;;;2.30;99.90;;;;;;4184090;28;20658;-84
2022/01/12 09:19:28;;;;;;;49.40;4.22;;;2.30;99.90;;;;;;4185348;28;20049;-83
2022/01/12 09:21:28;;;;;;;54.97;4.60;;;2.40;99.90;;;;;;4184247;28;20049;-83
2022/01/12 09:23:30;;;;;;;74.80;4.15;;;3.20;99.90;;;;;;4183497;28;20401;-83
2022/01/12 09:25:35;;;;;;;66.78;4.68;;;2.10;99.90;;;;;;4201589;28;20056;-84
2022/01/12 09:27:42;;;;;;;55.58;4.65;;;2.50;99.90;;;;;;4184284;28;20067;-83
2022/01/12 09:29:44;;;;;;;54.22;3.92;;;1.70;99.90;;;;;;4201744;28;20041;-84
2022/01/12 09:31:45;;;;;;;53.70;3.75;;;2.90;99.90;;;;;;4201217;28;20127;-84
2022/01/12 09:33:49;;;;;;;40.05;3.78;;;2.40;99.90;;;;;;4177132;28;20049;-84
2022/01/12 09:35:52;;;;;;;36.17;3.55;;;4.20;99.90;;;;;;4199336;28;20060;-84
2022/01/12 09:37:54;;;;;;;79.90;4.20;;;4.30;99.90;;;;;;4184236;28;20493;-84
2022/01/12 09:39:55;;;;;;;31.63;3.38;;;4.10;99.90;;;;;;4201174;28;20086;-84
2022/01/12 09:41:57;;;;;;;52.05;4.00;;;3.40;99.90;;;;;;4201053;28;20086;-85
2022/01/12 09:43:58;;;;;;;61.47;4.00;;;2.70;99.90;;;;;;4171290;28;20041;-85
2022/01/12 09:45:59;;;;;;;48.17;3.83;;;3.60;99.90;;;;;;4168086;28;20527;-83
2022/01/12 09:48:00;;;;;;;49.00;3.10;;;3.80;99.90;;;;;;4168187;28;20041;-84
2022/01/12 09:50:01;;;;;;;46.42;3.33;;;4.50;99.90;;;;;;4180620;28;20501;-83
2022/01/12 09:52:03;;;;;;;74.35;4.22;;;3.40;99.90;;;;;;4184506;28;20478;-83
2022/01/12 09:54:05;;;;;;;95.13;6.00;;;2.80;99.90;;;;;;4168707;28;20056;-82
2022/01/12 09:56:17;;;;;;;38.15;3.40;;;2.90;99.90;;;;;;4201144;28;20083;-85
2022/01/12 09:58:18;;;;;;;53.75;3.75;;;2.90;99.90;;;;;;4183658;28;20104;-85
2022/01/12 10:00:24;;;;;;;67.30;3.67;;;3.80;99.90;;;;;;4200145;28;20488;-83
2022/01/12 10:02:24;;;;;;;63.03;3.78;;;3.50;99.90;;;;;;4166625;28;20068;-84
2022/01/12 10:04:30;;;;;;;58.60;4.20;;;3.60;99.90;;;;;;4183911;28;20053;-85
2022/01/12 10:06:35;;;;;;;54.65;4.22;;;3.00;99.90;;;;;;4191599;28;20412;-83
2022/01/12 10:08:36;;;;;;;42.75;3.55;;;2.90;99.90;;;;;;4166958;28;20045;-83
2022/01/12 10:10:37;;;;;;;57.65;3.88;;;4.50;99.90;;;;;;4183829;28;20520;-83
2022/01/12 10:12:39;;;;;;;57.97;4.68;;;3.00;99.90;;;;;;4171225;28;20045;-84
2022/01/12 10:14:43;;;;;;;68.60;3.97;;;3.00;99.90;;;;;;4193276;28;20049;-83
2022/01/12 10:16:59;;;;;;;51.67;3.60;;;4.00;99.90;;;;;;4183616;28;20049;-84
2022/01/12 10:19:03;;;;;;;57.88;5.57;;;3.30;99.90;;;;;;4190021;28;20155;-84
2022/01/12 10:21:04;;;;;;;33.80;3.70;;;3.30;99.90;;;;;;4200213;28;20049;-84
2022/01/12 10:23:08;;;;;;;30.02;2.88;;;4.90;99.90;;;;;;4183319;28;20055;-83
2022/01/12 10:25:16;;;;;;;35.72;3.40;;;3.50;99.90;;;;;;4194384;28;20110;-82
2022/01/12 10:27:21;;;;;;;71.10;4.82;;;4.90;99.90;;;;;;4185144;28;20068;-83
2022/01/12 10:29:24;;;;;;;48.88;3.75;;;4.10;99.90;;;;;;4184758;28;20481;-84
2022/01/12 10:31:25;;;;;;;28.80;4.82;;;5.30;99.90;;;;;;4193219;28;20535;-85
2022/01/12 10:33:36;;;;;;;27.75;3.08;;;5.20;99.90;;;;;;4182958;28;20056;-83
2022/01/12 10:35:42;;;;;;;22.08;3.30;;;3.90;99.90;;;;;;4200333;28;20060;-83
2022/01/12 10:37:44;;;;;;;23.25;2.60;;;5.10;99.90;;;;;;4200041;28;20516;-85
2022/01/12 10:39:50;;;;;;;32.13;3.47;;;4.00;99.90;;;;;;4202490;28;20075;-82
2022/01/12 10:42:05;;;;;;;17.48;3.08;;;5.30;99.90;;;;;;4180246;28;20102;-82
2022/01/12 10:44:06;;;;;;;29.40;3.20;;;4.30;99.90;;;;;;4204826;28;20051;-83
2022/01/12 10:46:09;;;;;;;14.30;1.92;;;;;;;;;;4210831;28;20556;-83
2022/01/12 10:48:12;;;;;;;30.55;2.83;;;;;;;;;;4211735;28;20469;-83
2022/01/12 10:50:14;;;;;;;11.80;2.90;;;4.30;99.90;;;;;;4203416;28;20037;-83
2022/01/12 10:52:14;;;;;;;17.23;2.45;;;4.50;99.90;;;;;;4190198;28;20063;-85
2022/01/12 10:54:16;;;;;;;11.80;2.80;;;4.70;99.90;;;;;;4187370;28;20041;-86
2022/01/12 10:56:23;;;;;;;24.23;3.85;;;5.50;99.90;;;;;;4168548;28;20053;-85
2022/01/12 10:58:24;;;;;;;16.65;2.65;;;6.00;99.90;;;;;;4184483;28;20045;-85
2022/01/12 11:00:26;;;;;;;13.48;2.53;;;5.40;99.90;;;;;;4167360;28;20049;-85
2022/01/12 11:02:28;;;;;;;9.13;3.03;;;5.50;99.90;;;;;;4192640;28;20059;-86
2022/01/12 11:04:31;;;;;;;7.78;2.28;;;5.20;99.90;;;;;;4200745;28;20806;-86
2022/01/12 11:06:35;;;;;;;7.70;2.00;;;6.40;99.90;;;;;;4198635;28;20044;-86
2022/01/12 11:08:40;;;;;;;5.93;2.17;;;;;;;;;;4200949;28;20084;-86
2022/01/12 11:10:41;;;;;;;8.70;2.53;;;5.60;99.90;;;;;;4198932;28;20068;-86
2022/01/12 11:12:43;;;;;;;11.43;2.78;;;;;;;;;;4197899;28;20047;-85
2022/01/12 11:14:46;;;;;;;13.73;2.88;;;;;;;;;;4199646;28;20094;-86
2022/01/12 11:16:50;;;;;;;14.90;3.22;;;6.50;99.90;;;;;;4182279;28;20052;-86
2022/01/12 11:18:54;;;;;;;8.77;2.25;;;;;;;;;;4198148;28;20048;-86
2022/01/12 11:21:16;;;;;;;9.05;2.22;;;6.30;99.90;;;;;;4198798;28;20048;-85
2022/01/12 11:23:19;;;;;;;10.07;2.50;;;6.40;99.90;;;;;;4199390;28;20047;-85
2022/01/12 11:25:28;;;;;;;10.82;2.78;;;6.40;99.90;;;;;;4199813;28;20045;-84
2022/01/12 11:27:29;;;;;;;8.27;2.78;;;7.10;99.90;;;;;;4209702;28;20061;-84
2022/01/12 11:29:35;;;;;;;5.93;2.22;;;7.50;99.90;;;;;;4216590;28;20123;-83
2022/01/12 11:33:46;;;;;;;7.20;2.42;;;6.30;99.90;;;;;;4449544;22;20390;-84
2022/01/12 11:35:52;;;;;;;6.07;2.33;;;6.20;99.90;;;;;;4116055;28;20137;-84
2022/01/12 11:37:57;;;;;;;12.40;3.17;;;6.00;99.90;;;;;;4120261;28;20055;-85
2022/01/12 11:40:08;;;;;;;9.75;3.22;;;6.00;99.90;;;;;;4132174;28;20109;-85
2022/01/12 11:42:09;;;;;;;10.95;2.65;;;6.00;99.90;;;;;;4136037;28;20052;-85
2022/01/12 11:44:22;;;;;;;14.13;2.88;;;6.00;99.90;;;;;;4151277;28;20117;-85
2022/01/12 11:46:28;;;;;;;8.85;3.30;;;6.60;99.90;;;;;;4151856;28;20492;-83
2022/01/12 11:48:32;;;;;;;10.90;2.92;;;5.90;99.90;;;;;;4151111;28;20049;-83
2022/01/12 11:50:33;;;;;;;14.98;3.10;;;6.00;99.90;;;;;;4148748;28;20053;-84
2022/01/12 11:52:36;;;;;;;17.00;3.63;;;6.50;99.90;;;;;;4136545;28;20057;-84
2022/01/12 11:54:38;;;;;;;14.20;3.25;;;5.70;99.90;;;;;;4134370;28;20050;-84